createdAt,value
2018-02-09T00:00:09.179Z,1007.33
2018-02-09T00:01:09.146Z,1007.32
2018-02-09T00:02:09.110Z,1007.36
2018-02-09T00:03:09.074Z,1007.35
2018-02-09T00:04:09.040Z,1007.38
2018-02-09T00:05:09.005Z,1007.36
2018-02-09T00:06:08.970Z,1007.38
2018-02-09T00:07:08.935Z,1007.38
2018-02-09T00:08:08.900Z,1007.36
2018-02-09T00:09:08.866Z,1007.29
2018-02-09T00:10:08.832Z,1007.32
2018-02-09T00:11:08.797Z,1007.31
2018-02-09T00:12:08.761Z,1007.32
2018-02-09T00:13:08.726Z,1007.33
2018-02-09T00:14:08.692Z,1007.35
2018-02-09T00:15:08.656Z,1007.35
2018-02-09T00:16:08.623Z,1007.35
2018-02-09T00:17:08.587Z,1007.34
2018-02-09T00:18:08.551Z,1007.32
2018-02-09T00:19:08.518Z,1007.3
2018-02-09T00:20:08.485Z,1007.3
2018-02-09T00:21:08.447Z,1007.28
2018-02-09T00:22:08.412Z,1007.29
2018-02-09T00:23:08.378Z,1007.29
2018-02-09T00:24:08.343Z,1007.24
2018-02-09T00:25:08.307Z,1007.23
2018-02-09T00:26:08.273Z,1007.25
2018-02-09T00:27:08.242Z,1007.21
2018-02-09T00:28:08.202Z,1007.21
2018-02-09T00:29:08.168Z,1007.18
2018-02-09T00:30:08.133Z,1007.23
2018-02-09T00:31:08.098Z,1007.21
2018-02-09T00:32:08.063Z,1007.19
2018-02-09T00:33:08.028Z,1007.17
2018-02-09T00:34:07.994Z,1007.18
2018-02-09T00:35:07.957Z,1007.16
2018-02-09T00:36:07.924Z,1007.15
2018-02-09T00:37:07.888Z,1007.19
2018-02-09T00:38:07.854Z,1007.15
2018-02-09T00:39:07.819Z,1007.15
2018-02-09T00:40:07.794Z,1007.17
2018-02-09T00:41:07.750Z,1007.15
2018-02-09T00:42:07.714Z,1007.12
2018-02-09T00:43:07.686Z,1007.14
2018-02-09T00:44:07.644Z,1007.13
2018-02-09T00:45:07.611Z,1007.14
2018-02-09T00:46:07.574Z,1007.13
2018-02-09T00:47:07.540Z,1007.1
2018-02-09T00:48:07.505Z,1007.1
2018-02-09T00:49:07.469Z,1007.09
2018-02-09T00:50:07.435Z,1007.09
2018-02-09T00:51:07.399Z,1007.09
2018-02-09T00:52:07.366Z,1007.12
2018-02-09T00:53:07.330Z,1007.1
2018-02-09T00:54:07.295Z,1007.1
2018-02-09T00:55:07.260Z,1007.14
2018-02-09T00:56:07.225Z,1007.13
2018-02-09T00:57:07.190Z,1007.12
2018-02-09T00:58:07.155Z,1007.13
2018-02-09T00:59:07.119Z,1007.14
2018-02-09T01:00:07.085Z,1007.06
2018-02-09T01:01:07.053Z,1007.08
2018-02-09T01:02:07.015Z,1007.06
2018-02-09T01:03:06.982Z,1007.08
2018-02-09T01:04:06.945Z,1007.04
2018-02-09T01:05:06.909Z,1007.06
2018-02-09T01:06:06.874Z,1007.03
2018-02-09T01:07:06.840Z,1007.05
2018-02-09T01:08:06.804Z,1007.04
2018-02-09T01:09:06.769Z,1007.05
2018-02-09T01:10:06.834Z,1006.99
2018-02-09T01:11:06.698Z,1007.03
2018-02-09T01:12:06.663Z,1007.02
2018-02-09T01:13:06.628Z,1006.99
2018-02-09T01:14:06.594Z,1006.99
2018-02-09T01:15:06.558Z,1007.01
2018-02-09T01:16:06.524Z,1007
2018-02-09T01:17:06.489Z,1007.01
2018-02-09T01:18:06.453Z,1007.02
2018-02-09T01:19:06.417Z,1007.01
2018-02-09T01:20:06.382Z,1006.99
2018-02-09T01:21:06.347Z,1007.01
2018-02-09T01:22:06.313Z,1006.99
2018-02-09T01:23:06.278Z,1007.02
2018-02-09T01:24:06.243Z,1007.04
2018-02-09T01:25:06.208Z,1006.99
2018-02-09T01:26:06.173Z,1007.01
2018-02-09T01:27:06.138Z,1006.99
2018-02-09T01:28:06.103Z,1007.01
2018-02-09T01:29:06.068Z,1006.99
2018-02-09T01:30:06.035Z,1006.99
2018-02-09T01:31:05.998Z,1006.99
2018-02-09T01:32:05.962Z,1007.01
2018-02-09T01:33:05.926Z,1006.99
2018-02-09T01:34:05.891Z,1006.97
2018-02-09T01:35:05.858Z,1006.98
2018-02-09T01:36:05.824Z,1006.98
2018-02-09T01:37:05.788Z,1006.98
2018-02-09T01:38:05.752Z,1006.99
2018-02-09T01:39:05.717Z,1006.95
2018-02-09T01:40:05.683Z,1006.97
2018-02-09T01:41:05.646Z,1006.94
2018-02-09T01:42:05.611Z,1006.91
2018-02-09T01:43:05.578Z,1006.95
2018-02-09T01:44:05.541Z,1006.91
2018-02-09T01:45:05.509Z,1006.84
2018-02-09T01:46:05.471Z,1006.89
2018-02-09T01:47:05.437Z,1006.85
2018-02-09T01:48:05.401Z,1006.88
2018-02-09T01:49:05.367Z,1006.81
2018-02-09T01:50:05.331Z,1006.82
2018-02-09T01:51:05.297Z,1006.81
2018-02-09T01:52:05.260Z,1006.83
2018-02-09T01:53:05.226Z,1006.81
2018-02-09T01:54:05.199Z,1006.8
2018-02-09T01:55:05.155Z,1006.76
2018-02-09T01:56:05.123Z,1006.81
2018-02-09T01:57:05.085Z,1006.77
2018-02-09T01:58:05.052Z,1006.74
2018-02-09T01:59:05.014Z,1006.78
2018-02-09T02:00:04.981Z,1006.76
2018-02-09T02:01:04.946Z,1006.72
2018-02-09T02:02:04.910Z,1006.7
2018-02-09T02:03:04.875Z,1006.76
2018-02-09T02:04:04.840Z,1006.7
2018-02-09T02:05:04.808Z,1006.69
2018-02-09T02:06:04.770Z,1006.62
2018-02-09T02:07:04.735Z,1006.65
2018-02-09T02:08:04.701Z,1006.64
2018-02-09T02:09:04.665Z,1006.61
2018-02-09T02:10:04.630Z,1006.58
2018-02-09T02:11:04.596Z,1006.61
2018-02-09T02:12:04.561Z,1006.56
2018-02-09T02:13:04.526Z,1006.61
2018-02-09T02:14:04.491Z,1006.57
2018-02-09T02:15:04.455Z,1006.57
2018-02-09T02:16:04.421Z,1006.6
2018-02-09T02:17:04.386Z,1006.59
2018-02-09T02:18:04.350Z,1006.57
2018-02-09T02:19:04.314Z,1006.57
2018-02-09T02:20:04.280Z,1006.63
2018-02-09T02:21:04.245Z,1006.57
2018-02-09T02:22:04.209Z,1006.6
2018-02-09T02:23:04.174Z,1006.59
2018-02-09T02:24:04.139Z,1006.57
2018-02-09T02:25:04.104Z,1006.58
2018-02-09T02:26:04.070Z,1006.57
2018-02-09T02:27:04.034Z,1006.56
2018-02-09T02:28:03.999Z,1006.54
2018-02-09T02:29:03.962Z,1006.52
2018-02-09T02:30:03.929Z,1006.51
2018-02-09T02:31:03.894Z,1006.51
2018-02-09T02:32:03.858Z,1006.51
2018-02-09T02:33:03.826Z,1006.53
2018-02-09T02:34:03.789Z,1006.5
2018-02-09T02:35:03.752Z,1006.49
2018-02-09T02:36:03.719Z,1006.5
2018-02-09T02:37:03.692Z,1006.49
2018-02-09T02:38:03.649Z,1006.46
2018-02-09T02:39:03.614Z,1006.47
2018-02-09T02:40:03.577Z,1006.47
2018-02-09T02:41:03.542Z,1006.44
2018-02-09T02:42:03.538Z,1006.41
2018-02-09T02:43:03.477Z,1006.42
2018-02-09T02:44:03.438Z,1006.44
2018-02-09T02:45:03.403Z,1006.43
2018-02-09T02:46:03.368Z,1006.38
2018-02-09T02:47:03.334Z,1006.39
2018-02-09T02:48:03.297Z,1006.38
2018-02-09T02:49:03.263Z,1006.37
2018-02-09T02:50:03.226Z,1006.36
2018-02-09T02:51:03.192Z,1006.34
2018-02-09T02:52:03.157Z,1006.3
2018-02-09T02:53:03.122Z,1006.3
2018-02-09T02:54:03.086Z,1006.3
2018-02-09T02:55:03.055Z,1006.28
2018-02-09T02:56:03.015Z,1006.28
2018-02-09T02:57:02.981Z,1006.26
2018-02-09T02:58:02.946Z,1006.22
2018-02-09T02:59:02.912Z,1006.23
2018-02-09T03:00:02.877Z,1006.22
2018-02-09T03:01:02.840Z,1006.2
2018-02-09T03:02:02.805Z,1006.23
2018-02-09T03:03:02.771Z,1006.18
2018-02-09T03:04:02.952Z,1006.16
2018-02-09T03:05:02.699Z,1006.2
2018-02-09T03:06:02.664Z,1006.17
2018-02-09T03:07:02.629Z,1006.15
2018-02-09T03:08:02.595Z,1006.13
2018-02-09T03:09:02.559Z,1006.14
2018-02-09T03:10:02.525Z,1006.1
2018-02-09T03:11:02.489Z,1006.07
2018-02-09T03:12:02.454Z,1006.06
2018-02-09T03:13:02.419Z,1006.07
2018-02-09T03:14:02.387Z,1006.08
2018-02-09T03:15:02.349Z,1006.03
2018-02-09T03:16:02.314Z,1006.02
2018-02-09T03:17:02.279Z,1006.03
2018-02-09T03:18:02.244Z,1006
2018-02-09T03:19:02.208Z,1005.95
2018-02-09T03:20:02.174Z,1005.98
2018-02-09T03:21:02.138Z,1005.99
2018-02-09T03:22:02.107Z,1005.97
2018-02-09T03:23:02.066Z,1005.98
2018-02-09T03:24:02.033Z,1005.98
2018-02-09T03:25:01.997Z,1005.95
2018-02-09T03:26:01.963Z,1005.99
2018-02-09T03:27:01.926Z,1005.96
2018-02-09T03:28:01.891Z,1005.95
2018-02-09T03:29:01.857Z,1005.94
2018-02-09T03:30:01.820Z,1005.97
2018-02-09T03:31:01.786Z,1005.92
2018-02-09T03:32:01.751Z,1005.9
2018-02-09T03:33:01.716Z,1005.92
2018-02-09T03:34:01.680Z,1005.91
2018-02-09T03:35:01.645Z,1005.87
2018-02-09T03:36:01.609Z,1005.86
2018-02-09T03:37:01.576Z,1005.84
2018-02-09T03:38:01.539Z,1005.82
2018-02-09T03:39:01.504Z,1005.84
2018-02-09T03:40:01.470Z,1005.78
2018-02-09T03:41:01.433Z,1005.79
2018-02-09T03:42:01.397Z,1005.81
2018-02-09T03:43:01.363Z,1005.74
2018-02-09T03:44:01.327Z,1005.76
2018-02-09T03:45:01.293Z,1005.79
2018-02-09T03:46:01.257Z,1005.75
2018-02-09T03:47:01.223Z,1005.77
2018-02-09T03:48:01.187Z,1005.73
2018-02-09T03:49:01.153Z,1005.75
2018-02-09T03:50:01.117Z,1005.68
2018-02-09T03:51:01.082Z,1005.67
2018-02-09T03:52:01.046Z,1005.67
2018-02-09T03:53:01.011Z,1005.65
2018-02-09T03:54:00.977Z,1005.65
2018-02-09T03:55:00.941Z,1005.66
2018-02-09T03:56:00.906Z,1005.63
2018-02-09T03:57:00.870Z,1005.61
2018-02-09T03:58:00.836Z,1005.63
2018-02-09T03:59:00.809Z,1005.62
2018-02-09T04:00:00.765Z,1005.6
2018-02-09T04:01:00.730Z,1005.58
2018-02-09T04:02:00.695Z,1005.58
2018-02-09T04:03:00.658Z,1005.59
2018-02-09T04:04:00.624Z,1005.58
2018-02-09T04:05:00.589Z,1005.58
2018-02-09T04:06:00.554Z,1005.56
2018-02-09T04:07:00.518Z,1005.54
2018-02-09T04:08:00.484Z,1005.54
2018-02-09T04:09:00.449Z,1005.53
2018-02-09T04:10:00.411Z,1005.51
2018-02-09T04:11:00.377Z,1005.51
2018-02-09T04:12:00.342Z,1005.49
2018-02-09T04:13:00.308Z,1005.51
2018-02-09T04:14:00.273Z,1005.52
2018-02-09T04:15:00.237Z,1005.52
2018-02-09T04:16:00.201Z,1005.5
2018-02-09T04:17:00.166Z,1005.53
2018-02-09T04:18:00.129Z,1005.5
2018-02-09T04:19:00.095Z,1005.47
2018-02-09T04:20:00.066Z,1005.49
2018-02-09T04:21:00.027Z,1005.49
2018-02-09T04:21:59.988Z,1005.41
2018-02-09T04:22:59.954Z,1005.44
2018-02-09T04:23:59.920Z,1005.47
2018-02-09T04:24:59.883Z,1005.44
2018-02-09T04:25:59.849Z,1005.46
2018-02-09T04:26:59.813Z,1005.43
2018-02-09T04:27:59.778Z,1005.46
2018-02-09T04:28:59.743Z,1005.46
2018-02-09T04:29:59.708Z,1005.44
2018-02-09T04:30:59.712Z,1005.43
2018-02-09T04:31:59.636Z,1005.44
2018-02-09T04:32:59.602Z,1005.41
2018-02-09T04:33:59.567Z,1005.43
2018-02-09T04:34:59.530Z,1005.43
2018-02-09T04:35:59.495Z,1005.42
2018-02-09T04:36:59.460Z,1005.45
2018-02-09T04:37:59.424Z,1005.4
2018-02-09T04:38:59.390Z,1005.41
2018-02-09T04:39:59.354Z,1005.38
2018-02-09T04:40:59.320Z,1005.39
2018-02-09T04:41:59.284Z,1005.42
2018-02-09T04:42:59.248Z,1005.48
2018-02-09T04:43:59.212Z,1005.45
2018-02-09T04:44:59.177Z,1005.48
2018-02-09T04:45:59.143Z,1005.41
2018-02-09T04:46:59.106Z,1005.45
2018-02-09T04:47:59.072Z,1005.42
2018-02-09T04:48:59.037Z,1005.39
2018-02-09T04:49:59.003Z,1005.43
2018-02-09T04:50:58.966Z,1005.45
2018-02-09T04:51:58.931Z,1005.39
2018-02-09T04:52:58.895Z,1005.45
2018-02-09T04:53:58.860Z,1005.45
2018-02-09T04:54:58.825Z,1005.42
2018-02-09T04:55:58.790Z,1005.44
2018-02-09T04:56:58.755Z,1005.41
2018-02-09T04:57:58.718Z,1005.41
2018-02-09T04:58:58.684Z,1005.4
2018-02-09T04:59:58.648Z,1005.4
2018-02-09T05:00:58.613Z,1005.43
2018-02-09T05:01:58.579Z,1005.4
2018-02-09T05:02:58.542Z,1005.37
2018-02-09T05:03:58.509Z,1005.43
2018-02-09T05:04:58.472Z,1005.38
2018-02-09T05:05:58.438Z,1005.37
2018-02-09T05:06:58.402Z,1005.36
2018-02-09T05:07:58.368Z,1005.33
2018-02-09T05:08:58.333Z,1005.36
2018-02-09T05:09:58.297Z,1005.33
2018-02-09T05:10:58.264Z,1005.34
2018-02-09T05:11:58.227Z,1005.29
2018-02-09T05:12:58.193Z,1005.27
2018-02-09T05:13:58.158Z,1005.24
2018-02-09T05:14:58.122Z,1005.3
2018-02-09T05:15:58.088Z,1005.25
2018-02-09T05:16:58.053Z,1005.21
2018-02-09T05:17:58.018Z,1005.29
2018-02-09T05:18:57.982Z,1005.23
2018-02-09T05:19:57.947Z,1005.25
2018-02-09T05:20:57.915Z,1005.2
2018-02-09T05:21:57.877Z,1005.23
2018-02-09T05:22:57.844Z,1005.24
2018-02-09T05:23:57.808Z,1005.21
2018-02-09T05:24:57.773Z,1005.18
2018-02-09T05:25:57.738Z,1005.2
2018-02-09T05:26:57.703Z,1005.2
2018-02-09T05:27:57.668Z,1005.19
2018-02-09T05:28:57.639Z,1005.17
2018-02-09T05:29:57.599Z,1005.17
2018-02-09T05:30:57.563Z,1005.14
2018-02-09T05:31:57.528Z,1005.17
2018-02-09T05:32:57.492Z,1005.16
2018-02-09T05:33:57.457Z,1005.18
2018-02-09T05:34:57.423Z,1005.17
2018-02-09T05:35:57.386Z,1005.14
2018-02-09T05:36:57.353Z,1005.16
2018-02-09T05:37:57.317Z,1005.13
2018-02-09T05:38:57.282Z,1005.12
2018-02-09T05:39:57.248Z,1005.13
2018-02-09T05:40:57.215Z,1005.11
2018-02-09T05:41:57.176Z,1005.12
2018-02-09T05:42:57.140Z,1005.09
2018-02-09T05:43:57.106Z,1005.09
2018-02-09T05:44:57.070Z,1005.05
2018-02-09T05:45:57.035Z,1005.07
2018-02-09T05:46:57.000Z,1005.02
2018-02-09T05:47:56.967Z,1005.05
2018-02-09T05:48:56.930Z,1005.04
2018-02-09T05:49:56.896Z,1005.05
2018-02-09T05:50:56.860Z,1005.02
2018-02-09T05:51:56.826Z,1005.02
2018-02-09T05:52:56.794Z,1005.01
2018-02-09T05:53:56.755Z,1004.95
2018-02-09T05:54:56.720Z,1004.99
2018-02-09T05:55:56.683Z,1004.92
2018-02-09T05:56:56.656Z,1004.94
2018-02-09T05:57:56.614Z,1004.92
2018-02-09T05:58:56.648Z,1004.93
2018-02-09T05:59:56.675Z,1004.91
2018-02-09T06:00:56.750Z,1004.88
2018-02-09T06:01:56.488Z,1004.93
2018-02-09T06:02:56.441Z,1004.82
2018-02-09T06:03:56.403Z,1004.83
2018-02-09T06:04:56.369Z,1004.81
2018-02-09T06:05:56.333Z,1004.79
2018-02-09T06:06:56.298Z,1004.81
2018-02-09T06:07:56.263Z,1004.79
2018-02-09T06:08:56.228Z,1004.75
2018-02-09T06:09:56.192Z,1004.79
2018-02-09T06:10:56.157Z,1004.73
2018-02-09T06:11:56.122Z,1004.77
2018-02-09T06:12:56.274Z,1004.8
2018-02-09T06:13:56.052Z,1004.78
2018-02-09T06:14:56.019Z,1004.77
2018-02-09T06:15:55.982Z,1004.77
2018-02-09T06:16:55.946Z,1004.77
2018-02-09T06:17:55.909Z,1004.78
2018-02-09T06:18:55.876Z,1004.76
2018-02-09T06:19:55.840Z,1004.76
2018-02-09T06:20:55.805Z,1004.79
2018-02-09T06:21:55.768Z,1004.78
2018-02-09T06:22:55.734Z,1004.79
2018-02-09T06:23:55.699Z,1004.8
2018-02-09T06:24:55.665Z,1004.81
2018-02-09T06:25:55.628Z,1004.8
2018-02-09T06:26:55.593Z,1004.76
2018-02-09T06:27:55.559Z,1004.74
2018-02-09T06:28:55.523Z,1004.81
2018-02-09T06:29:55.487Z,1004.74
2018-02-09T06:30:55.453Z,1004.79
2018-02-09T06:31:55.417Z,1004.79
2018-02-09T06:32:55.382Z,1004.76
2018-02-09T06:33:55.348Z,1004.75
2018-02-09T06:34:55.312Z,1004.77
2018-02-09T06:35:55.282Z,1004.78
2018-02-09T06:36:55.241Z,1004.79
2018-02-09T06:37:55.212Z,1004.81
2018-02-09T06:38:55.173Z,1004.79
2018-02-09T06:39:55.135Z,1004.8
2018-02-09T06:40:55.101Z,1004.76
2018-02-09T06:41:55.066Z,1004.78
2018-02-09T06:42:55.032Z,1004.77
2018-02-09T06:43:54.996Z,1004.73
2018-02-09T06:44:54.963Z,1004.73
2018-02-09T06:45:54.926Z,1004.76
2018-02-09T06:46:54.892Z,1004.73
2018-02-09T06:47:54.859Z,1004.78
2018-02-09T06:48:54.821Z,1004.76
2018-02-09T06:49:54.786Z,1004.74
2018-02-09T06:50:54.750Z,1004.78
2018-02-09T06:51:54.717Z,1004.77
2018-02-09T06:52:54.681Z,1004.77
2018-02-09T06:53:54.646Z,1004.74
2018-02-09T06:54:54.612Z,1004.77
2018-02-09T06:55:54.577Z,1004.7
2018-02-09T06:56:54.542Z,1004.7
2018-02-09T06:57:54.508Z,1004.67
2018-02-09T06:58:54.474Z,1004.65
2018-02-09T06:59:54.439Z,1004.67
2018-02-09T07:00:54.404Z,1004.67
2018-02-09T07:01:54.368Z,1004.63
2018-02-09T07:02:54.335Z,1004.65
2018-02-09T07:03:54.300Z,1004.57
2018-02-09T07:04:54.267Z,1004.59
2018-02-09T07:05:54.231Z,1004.66
2018-02-09T07:06:54.196Z,1004.62
2018-02-09T07:07:54.163Z,1004.59
2018-02-09T07:08:54.126Z,1004.63
2018-02-09T07:09:54.107Z,1004.56
2018-02-09T07:10:54.059Z,1004.59
2018-02-09T07:11:54.024Z,1004.6
2018-02-09T07:12:53.990Z,1004.59
2018-02-09T07:13:53.955Z,1004.55
2018-02-09T07:14:53.922Z,1004.53
2018-02-09T07:15:53.888Z,1004.57
2018-02-09T07:16:53.851Z,1004.52
2018-02-09T07:17:53.822Z,1004.53
2018-02-09T07:18:53.784Z,1004.54
2018-02-09T07:19:53.748Z,1004.54
2018-02-09T07:20:53.714Z,1004.52
2018-02-09T07:21:53.680Z,1004.47
2018-02-09T07:22:53.647Z,1004.45
2018-02-09T07:23:53.615Z,1004.48
2018-02-09T07:24:53.578Z,1004.48
2018-02-09T07:25:53.546Z,1004.5
2018-02-09T07:26:53.509Z,1004.48
2018-02-09T07:27:53.475Z,1004.49
2018-02-09T07:28:53.441Z,1004.47
2018-02-09T07:29:53.406Z,1004.46
2018-02-09T07:30:53.372Z,1004.48
2018-02-09T07:31:53.337Z,1004.39
2018-02-09T07:32:53.334Z,1004.39
2018-02-09T07:33:53.269Z,1004.44
2018-02-09T07:34:53.235Z,1004.37
2018-02-09T07:35:53.202Z,1004.41
2018-02-09T07:36:53.166Z,1004.36
2018-02-09T07:37:53.132Z,1004.36
2018-02-09T07:38:53.097Z,1004.37
2018-02-09T07:39:53.063Z,1004.38
2018-02-09T07:40:53.028Z,1004.4
2018-02-09T07:41:52.994Z,1004.39
2018-02-09T07:42:52.959Z,1004.35
2018-02-09T07:43:52.926Z,1004.33
2018-02-09T07:44:52.891Z,1004.38
2018-02-09T07:45:52.856Z,1004.31
2018-02-09T07:46:52.821Z,1004.35
2018-02-09T07:47:52.788Z,1004.37
2018-02-09T07:48:52.754Z,1004.34
2018-02-09T07:49:52.720Z,1004.34
2018-02-09T07:50:52.686Z,1004.31
2018-02-09T07:51:52.653Z,1004.32
2018-02-09T07:52:52.618Z,1004.29
2018-02-09T07:53:52.584Z,1004.3
2018-02-09T07:54:52.548Z,1004.32
2018-02-09T07:55:52.514Z,1004.29
2018-02-09T07:56:52.479Z,1004.3
2018-02-09T07:57:52.447Z,1004.33
2018-02-09T07:58:52.509Z,1004.28
2018-02-09T07:59:52.380Z,1004.3
2018-02-09T08:00:52.345Z,1004.29
2018-02-09T08:01:52.309Z,1004.27
2018-02-09T08:02:52.276Z,1004.23
2018-02-09T08:03:52.242Z,1004.22
2018-02-09T08:04:52.208Z,1004.22
2018-02-09T08:05:52.173Z,1004.24
2018-02-09T08:06:52.140Z,1004.23
2018-02-09T08:07:52.106Z,1004.22
2018-02-09T08:08:52.072Z,1004.18
2018-02-09T08:09:52.037Z,1004.19
2018-02-09T08:10:52.004Z,1004.22
2018-02-09T08:11:51.970Z,1004.24
2018-02-09T08:12:51.936Z,1004.2
2018-02-09T08:13:52.012Z,1004.17
2018-02-09T08:14:51.866Z,1004.22
2018-02-09T08:15:51.834Z,1004.24
2018-02-09T08:16:51.799Z,1004.22
2018-02-09T08:17:51.765Z,1004.19
2018-02-09T08:18:51.731Z,1004.23
2018-02-09T08:19:51.697Z,1004.22
2018-02-09T08:20:51.663Z,1004.2
2018-02-09T08:21:51.630Z,1004.16
2018-02-09T08:22:51.596Z,1004.18
2018-02-09T08:23:51.562Z,1004.17
2018-02-09T08:24:51.528Z,1004.15
2018-02-09T08:25:51.494Z,1004.18
2018-02-09T08:26:51.461Z,1004.15
2018-02-09T08:27:51.525Z,1004.09
2018-02-09T08:28:51.393Z,1004.14
2018-02-09T08:29:51.359Z,1004.13
2018-02-09T08:30:51.326Z,1004.16
2018-02-09T08:31:51.292Z,1004.18
2018-02-09T08:32:51.258Z,1004.12
2018-02-09T08:33:51.225Z,1004.1
2018-02-09T08:34:51.192Z,1004.11
2018-02-09T08:35:51.159Z,1004.11
2018-02-09T08:36:51.124Z,1004.06
2018-02-09T08:37:51.091Z,1004.09
2018-02-09T08:38:51.057Z,1004.05
2018-02-09T08:39:51.025Z,1004.02
2018-02-09T08:40:50.989Z,1004
2018-02-09T08:41:50.956Z,1004.04
2018-02-09T08:42:50.986Z,1003.98
2018-02-09T08:43:50.889Z,1004.01
2018-02-09T08:44:50.923Z,1003.94
2018-02-09T08:45:50.822Z,1003.98
2018-02-09T08:46:50.789Z,1003.97
2018-02-09T08:47:50.755Z,1003.94
2018-02-09T08:48:50.721Z,1003.98
2018-02-09T08:49:50.687Z,1003.95
2018-02-09T08:50:50.654Z,1003.97
2018-02-09T08:51:50.619Z,1003.96
2018-02-09T08:52:50.586Z,1003.99
2018-02-09T08:53:50.555Z,1003.99
2018-02-09T08:54:50.520Z,1003.99
2018-02-09T08:55:50.486Z,1003.97
2018-02-09T08:56:50.453Z,1003.98
2018-02-09T08:57:50.421Z,1003.96
2018-02-09T08:58:50.386Z,1003.94
2018-02-09T08:59:50.355Z,1003.95
2018-02-09T09:00:50.321Z,1003.93
2018-02-09T09:01:50.287Z,1003.9
2018-02-09T09:02:50.253Z,1003.87
2018-02-09T09:03:50.220Z,1003.87
2018-02-09T09:04:50.187Z,1003.87
2018-02-09T09:05:50.152Z,1003.81
2018-02-09T09:06:50.120Z,1003.82
2018-02-09T09:07:50.086Z,1003.8
2018-02-09T09:08:50.158Z,1003.73
2018-02-09T09:09:50.021Z,1003.75
2018-02-09T09:10:49.987Z,1003.7
2018-02-09T09:11:49.954Z,1003.71
2018-02-09T09:12:49.923Z,1003.66
2018-02-09T09:13:49.887Z,1003.74
2018-02-09T09:14:49.855Z,1003.67
2018-02-09T09:15:49.823Z,1003.76
2018-02-09T09:16:49.789Z,1003.72
2018-02-09T09:17:49.762Z,1003.67
2018-02-09T09:18:49.725Z,1003.69
2018-02-09T09:19:49.690Z,1003.7
2018-02-09T09:20:49.657Z,1003.63
2018-02-09T09:21:49.624Z,1003.61
2018-02-09T09:22:49.592Z,1003.63
2018-02-09T09:23:49.559Z,1003.61
2018-02-09T09:24:49.527Z,1003.58
2018-02-09T09:25:49.494Z,1003.59
2018-02-09T09:26:49.462Z,1003.6
2018-02-09T09:27:49.429Z,1003.6
2018-02-09T09:28:49.396Z,1003.65
2018-02-09T09:29:49.364Z,1003.61
2018-02-09T09:30:49.331Z,1003.64
2018-02-09T09:31:49.298Z,1003.63
2018-02-09T09:32:49.264Z,1003.68
2018-02-09T09:33:49.232Z,1003.62
2018-02-09T09:34:49.200Z,1003.59
2018-02-09T09:35:49.168Z,1003.66
2018-02-09T09:36:49.146Z,1003.67
2018-02-09T09:37:49.124Z,1003.66
2018-02-09T09:38:49.070Z,1003.67
2018-02-09T09:39:49.041Z,1003.67
2018-02-09T09:40:49.007Z,1003.67
2018-02-09T09:41:48.974Z,1003.64
2018-02-09T09:42:48.941Z,1003.7
2018-02-09T09:43:48.908Z,1003.67
2018-02-09T09:44:48.900Z,1003.66
2018-02-09T09:45:48.844Z,1003.65
2018-02-09T09:46:48.818Z,1003.63
2018-02-09T09:47:48.784Z,1003.64
2018-02-09T09:48:48.749Z,1003.63
2018-02-09T09:49:48.847Z,1003.62
2018-02-09T09:50:48.684Z,1003.58
2018-02-09T09:51:48.651Z,1003.63
2018-02-09T09:52:48.620Z,1003.61
2018-02-09T09:53:48.587Z,1003.58
2018-02-09T09:54:48.556Z,1003.63
2018-02-09T09:55:48.693Z,1003.56
2018-02-09T09:56:48.491Z,1003.56
2018-02-09T09:57:48.460Z,1003.55
2018-02-09T09:58:48.427Z,1003.56
2018-02-09T09:59:48.397Z,1003.53
2018-02-09T10:00:48.364Z,1003.58
2018-02-09T10:01:48.706Z,1003.55
2018-02-09T10:02:48.301Z,1003.56
2018-02-09T10:03:48.524Z,1003.51
2018-02-09T10:04:48.237Z,1003.53
2018-02-09T10:05:48.205Z,1003.53
2018-02-09T10:06:48.174Z,1003.49
2018-02-09T10:07:48.142Z,1003.52
2018-02-09T10:08:48.121Z,1003.46
2018-02-09T10:09:48.080Z,1003.47
2018-02-09T10:10:48.049Z,1003.53
2018-02-09T10:11:48.016Z,1003.48
2018-02-09T10:12:47.984Z,1003.48
2018-02-09T10:13:47.957Z,1003.46
2018-02-09T10:14:47.924Z,1003.49
2018-02-09T10:15:47.890Z,1003.46
2018-02-09T10:16:47.859Z,1003.51
2018-02-09T10:17:47.826Z,1003.47
2018-02-09T10:18:47.795Z,1003.46
2018-02-09T10:19:47.764Z,1003.44
2018-02-09T10:20:47.733Z,1003.51
2018-02-09T10:21:47.701Z,1003.48
2018-02-09T10:22:47.668Z,1003.41
2018-02-09T10:23:47.637Z,1003.45
2018-02-09T10:24:47.605Z,1003.49
2018-02-09T10:25:47.575Z,1003.46
2018-02-09T10:26:47.542Z,1003.49
2018-02-09T10:27:47.583Z,1003.47
2018-02-09T10:28:47.553Z,1003.47
2018-02-09T10:29:47.500Z,1003.46
2018-02-09T10:30:47.417Z,1003.44
2018-02-09T10:31:47.423Z,1003.43
2018-02-09T10:32:47.354Z,1003.45
2018-02-09T10:33:47.347Z,1003.5
2018-02-09T10:34:47.289Z,1003.45
2018-02-09T10:35:47.427Z,1003.47
2018-02-09T10:36:47.248Z,1003.39
2018-02-09T10:37:47.197Z,1003.37
2018-02-09T10:38:47.163Z,1003.4
2018-02-09T10:39:47.133Z,1003.36
2018-02-09T10:40:47.104Z,1003.36
2018-02-09T10:41:47.092Z,1003.37
2018-02-09T10:42:47.038Z,1003.33
2018-02-09T10:43:47.061Z,1003.33
2018-02-09T10:44:46.975Z,1003.34
2018-02-09T10:45:46.942Z,1003.34
2018-02-09T10:46:46.927Z,1003.3
2018-02-09T10:47:46.881Z,1003.25
2018-02-09T10:48:46.847Z,1003.22
2018-02-09T10:49:46.872Z,1003.16
2018-02-09T10:50:46.789Z,1003.24
2018-02-09T10:51:46.754Z,1003.2
2018-02-09T10:52:47.154Z,1003.22
2018-02-09T10:53:46.692Z,1003.26
2018-02-09T10:54:46.660Z,1003.21
2018-02-09T10:55:46.627Z,1003.22
2018-02-09T10:56:46.596Z,1003.19
2018-02-09T10:57:46.565Z,1003.21
2018-02-09T10:58:46.534Z,1003.22
2018-02-09T10:59:46.507Z,1003.16
2018-02-09T11:00:46.472Z,1003.17
2018-02-09T11:01:46.442Z,1003.14
2018-02-09T11:02:46.409Z,1003.16
2018-02-09T11:03:46.377Z,1003.16
2018-02-09T11:04:46.346Z,1003.2
2018-02-09T11:05:46.316Z,1003.16
2018-02-09T11:06:46.308Z,1003.22
2018-02-09T11:07:46.254Z,1003.13
2018-02-09T11:08:46.222Z,1003.2
2018-02-09T11:09:46.191Z,1003.16
2018-02-09T11:10:46.158Z,1003.23
2018-02-09T11:11:46.127Z,1003.22
2018-02-09T11:12:46.097Z,1003.15
2018-02-09T11:13:46.064Z,1003.21
2018-02-09T11:14:46.034Z,1003.17
2018-02-09T11:15:46.005Z,1003.14
2018-02-09T11:16:45.971Z,1003.19
2018-02-09T11:17:45.939Z,1003.18
2018-02-09T11:18:45.911Z,1003.21
2018-02-09T11:19:45.879Z,1003.2
2018-02-09T11:20:45.847Z,1003.14
2018-02-09T11:21:45.814Z,1003.2
2018-02-09T11:22:45.805Z,1003.19
2018-02-09T11:23:45.753Z,1003.2
2018-02-09T11:24:45.722Z,1003.16
2018-02-09T11:25:45.750Z,1003.16
2018-02-09T11:26:45.660Z,1003.19
2018-02-09T11:27:45.629Z,1003.18
2018-02-09T11:28:45.598Z,1003.18
2018-02-09T11:29:45.573Z,1003.09
2018-02-09T11:30:45.536Z,1003.1
2018-02-09T11:31:45.506Z,1003.06
2018-02-09T11:32:45.473Z,1003.03
2018-02-09T11:33:45.765Z,1003.06
2018-02-09T11:34:45.412Z,1003.06
2018-02-09T11:35:45.381Z,1003.01
2018-02-09T11:36:45.349Z,1003.02
2018-02-09T11:37:45.318Z,1003.05
2018-02-09T11:38:45.292Z,1003.02
2018-02-09T11:39:45.260Z,1002.97
2018-02-09T11:40:45.228Z,1003.03
2018-02-09T11:41:45.561Z,1002.96
2018-02-09T11:42:45.166Z,1002.92
2018-02-09T11:43:45.663Z,1002.88
2018-02-09T11:44:45.105Z,1002.92
2018-02-09T11:45:45.073Z,1002.9
2018-02-09T11:46:45.043Z,1002.95
2018-02-09T11:47:45.012Z,1002.93
2018-02-09T11:48:44.980Z,1002.89
2018-02-09T11:49:44.950Z,1002.89
2018-02-09T11:50:44.942Z,1002.87
2018-02-09T11:51:44.889Z,1002.85
2018-02-09T11:52:44.913Z,1002.85
2018-02-09T11:53:44.829Z,1002.87
2018-02-09T11:54:44.796Z,1002.86
2018-02-09T11:55:44.766Z,1002.9
2018-02-09T11:56:44.738Z,1002.89
2018-02-09T11:57:44.708Z,1002.82
2018-02-09T11:58:44.675Z,1002.88
2018-02-09T11:59:44.645Z,1002.84
2018-02-09T12:00:44.614Z,1002.84
2018-02-09T12:01:44.583Z,1002.81
2018-02-09T12:02:44.553Z,1002.79
2018-02-09T12:03:44.521Z,1002.78
2018-02-09T12:04:44.493Z,1002.8
2018-02-09T12:05:44.462Z,1002.78
2018-02-09T12:06:44.430Z,1002.75
2018-02-09T12:07:44.400Z,1002.75